sensor_id;sensor_type;location;lat;lon;timestamp;P1;durP1;ratioP1;P2;durP2;ratioP2
3121;SDS011;1571;52.524;14.104;2023-07-20T00:00:00;5.13;;;4.67;;
3121;SDS011;1571;52.524;14.104;2023-07-20T00:02:39;7.73;;;4.67;;
3121;SDS011;1571;52.524;14.104;2023-07-20T00:05:08;3.97;;;3.77;;
3121;SDS011;1571;52.524;14.104;2023-07-20T00:07:37;6.23;;;4.80;;
3121;SDS011;1571;52.524;14.104;2023-07-20T00:10:06;5.00;;;4.60;;
3121;SDS011;1571;52.524;14.104;2023-07-20T00:12:34;6.53;;;4.80;;
3121;SDS011;1571;52.524;14.104;2023-07-20T00:15:03;6.13;;;5.03;;
3121;SDS011;1571;52.524;14.104;2023-07-20T00:17:32;5.80;;;5.30;;
3121;SDS011;1571;52.524;14.104;2023-07-20T00:20:00;6.97;;;6.37;;
3121;SDS011;1571;52.524;14.104;2023-07-20T00:22:30;4.97;;;4.57;;
3121;SDS011;1571;52.524;14.104;2023-07-20T00:24:58;5.83;;;5.43;;
3121;SDS011;1571;52.524;14.104;2023-07-20T00:27:26;6.77;;;6.27;;
3121;SDS011;1571;52.524;14.104;2023-07-20T00:29:54;7.47;;;6.77;;
3121;SDS011;1571;52.524;14.104;2023-07-20T00:32:23;5.70;;;5.20;;
3121;SDS011;1571;52.524;14.104;2023-07-20T00:34:51;5.80;;;5.30;;
3121;SDS011;1571;52.524;14.104;2023-07-20T00:37:19;5.40;;;4.90;;
3121;SDS011;1571;52.524;14.104;2023-07-20T00:39:48;5.97;;;5.47;;
3121;SDS011;1571;52.524;14.104;2023-07-20T00:42:18;5.90;;;5.50;;
3121;SDS011;1571;52.524;14.104;2023-07-20T00:44:46;6.50;;;5.93;;
3121;SDS011;1571;52.524;14.104;2023-07-20T00:47:14;6.80;;;6.33;;
3121;SDS011;1571;52.524;14.104;2023-07-20T00:49:43;7.23;;;6.20;;
3121;SDS011;1571;52.524;14.104;2023-07-20T00:52:11;6.33;;;5.73;;
3121;SDS011;1571;52.524;14.104;2023-07-20T00:54:42;5.83;;;5.40;;
3121;SDS011;1571;52.524;14.104;2023-07-20T00:57:13;6.63;;;6.13;;
3121;SDS011;1571;52.524;14.104;2023-07-20T00:59:42;6.30;;;5.80;;
3121;SDS011;1571;52.524;14.104;2023-07-20T01:02:10;6.80;;;6.13;;
3121;SDS011;1571;52.524;14.104;2023-07-20T01:04:40;6.23;;;5.83;;
3121;SDS011;1571;52.524;14.104;2023-07-20T01:07:10;6.73;;;6.13;;
3121;SDS011;1571;52.524;14.104;2023-07-20T01:09:42;7.13;;;6.47;;
3121;SDS011;1571;52.524;14.104;2023-07-20T01:12:20;8.13;;;6.97;;
3121;SDS011;1571;52.524;14.104;2023-07-20T01:14:54;7.83;;;7.13;;
3121;SDS011;1571;52.524;14.104;2023-07-20T01:17:23;7.40;;;6.70;;
3121;SDS011;1571;52.524;14.104;2023-07-20T01:19:51;6.87;;;5.50;;
3121;SDS011;1571;52.524;14.104;2023-07-20T01:22:23;8.20;;;6.70;;
3121;SDS011;1571;52.524;14.104;2023-07-20T01:25:18;7.27;;;6.70;;
3121;SDS011;1571;52.524;14.104;2023-07-20T01:28:15;6.27;;;5.77;;
3121;SDS011;1571;52.524;14.104;2023-07-20T01:31:21;5.90;;;5.50;;
3121;SDS011;1571;52.524;14.104;2023-07-20T01:33:52;5.37;;;5.07;;
3121;SDS011;1571;52.524;14.104;2023-07-20T01:36:24;6.63;;;6.00;;
3121;SDS011;1571;52.524;14.104;2023-07-20T01:38:54;6.43;;;5.83;;
3121;SDS011;1571;52.524;14.104;2023-07-20T01:41:23;6.30;;;4.70;;
3121;SDS011;1571;52.524;14.104;2023-07-20T01:43:52;6.63;;;6.00;;
3121;SDS011;1571;52.524;14.104;2023-07-20T01:46:22;6.00;;;5.50;;
3121;SDS011;1571;52.524;14.104;2023-07-20T01:48:51;6.10;;;5.70;;
3121;SDS011;1571;52.524;14.104;2023-07-20T01:51:19;6.07;;;5.67;;
3121;SDS011;1571;52.524;14.104;2023-07-20T01:53:48;6.63;;;6.03;;
3121;SDS011;1571;52.524;14.104;2023-07-20T01:56:16;5.73;;;5.37;;
3121;SDS011;1571;52.524;14.104;2023-07-20T01:58:44;6.00;;;5.40;;
3121;SDS011;1571;52.524;14.104;2023-07-20T02:01:13;6.73;;;6.13;;
3121;SDS011;1571;52.524;14.104;2023-07-20T02:03:42;6.43;;;5.87;;
3121;SDS011;1571;52.524;14.104;2023-07-20T02:06:10;6.70;;;6.10;;
3121;SDS011;1571;52.524;14.104;2023-07-20T02:08:39;6.77;;;6.27;;
3121;SDS011;1571;52.524;14.104;2023-07-20T02:11:07;6.10;;;5.60;;
3121;SDS011;1571;52.524;14.104;2023-07-20T02:13:36;6.27;;;5.70;;
3121;SDS011;1571;52.524;14.104;2023-07-20T02:16:05;6.10;;;5.57;;
3121;SDS011;1571;52.524;14.104;2023-07-20T02:18:33;4.93;;;4.63;;
3121;SDS011;1571;52.524;14.104;2023-07-20T02:21:04;6.70;;;6.10;;
3121;SDS011;1571;52.524;14.104;2023-07-20T02:23:32;7.37;;;6.87;;
3121;SDS011;1571;52.524;14.104;2023-07-20T02:26:01;5.73;;;5.33;;
3121;SDS011;1571;52.524;14.104;2023-07-20T02:28:29;6.60;;;6.20;;
3121;SDS011;1571;52.524;14.104;2023-07-20T02:30:57;7.27;;;5.90;;
3121;SDS011;1571;52.524;14.104;2023-07-20T02:33:27;5.57;;;5.17;;
3121;SDS011;1571;52.524;14.104;2023-07-20T02:35:55;5.43;;;5.00;;
3121;SDS011;1571;52.524;14.104;2023-07-20T02:38:25;6.30;;;5.80;;
3121;SDS011;1571;52.524;14.104;2023-07-20T02:40:53;7.10;;;5.23;;
3121;SDS011;1571;52.524;14.104;2023-07-20T02:43:21;6.20;;;5.80;;
3121;SDS011;1571;52.524;14.104;2023-07-20T02:45:50;6.20;;;5.60;;
3121;SDS011;1571;52.524;14.104;2023-07-20T02:48:18;6.70;;;6.20;;
3121;SDS011;1571;52.524;14.104;2023-07-20T02:50:47;7.13;;;6.60;;
3121;SDS011;1571;52.524;14.104;2023-07-20T02:53:16;7.20;;;6.60;;
3121;SDS011;1571;52.524;14.104;2023-07-20T02:55:45;6.00;;;5.50;;
3121;SDS011;1571;52.524;14.104;2023-07-20T02:58:14;7.17;;;6.57;;
3121;SDS011;1571;52.524;14.104;2023-07-20T03:00:42;6.87;;;6.27;;
3121;SDS011;1571;52.524;14.104;2023-07-20T03:03:11;5.80;;;5.30;;
3121;SDS011;1571;52.524;14.104;2023-07-20T03:05:40;5.77;;;5.30;;
3121;SDS011;1571;52.524;14.104;2023-07-20T03:08:08;6.40;;;5.53;;
3121;SDS011;1571;52.524;14.104;2023-07-20T03:10:38;5.63;;;5.23;;
3121;SDS011;1571;52.524;14.104;2023-07-20T03:13:09;6.87;;;6.33;;
3121;SDS011;1571;52.524;14.104;2023-07-20T03:15:37;6.67;;;6.17;;
3121;SDS011;1571;52.524;14.104;2023-07-20T03:18:06;7.73;;;6.93;;
3121;SDS011;1571;52.524;14.104;2023-07-20T03:20:35;7.33;;;6.63;;
3121;SDS011;1571;52.524;14.104;2023-07-20T03:23:04;7.30;;;6.57;;
3121;SDS011;1571;52.524;14.104;2023-07-20T03:25:32;8.80;;;8.00;;
3121;SDS011;1571;52.524;14.104;2023-07-20T03:28:01;8.50;;;7.70;;
3121;SDS011;1571;52.524;14.104;2023-07-20T03:30:31;10.60;;;9.60;;
3121;SDS011;1571;52.524;14.104;2023-07-20T03:32:59;10.70;;;9.70;;
3121;SDS011;1571;52.524;14.104;2023-07-20T03:35:29;10.77;;;8.90;;
3121;SDS011;1571;52.524;14.104;2023-07-20T03:37:58;10.57;;;9.17;;
3121;SDS011;1571;52.524;14.104;2023-07-20T03:40:26;12.10;;;10.87;;
3121;SDS011;1571;52.524;14.104;2023-07-20T03:42:54;11.10;;;9.40;;
3121;SDS011;1571;52.524;14.104;2023-07-20T03:45:22;12.27;;;9.70;;
3121;SDS011;1571;52.524;14.104;2023-07-20T03:47:52;13.07;;;9.70;;
3121;SDS011;1571;52.524;14.104;2023-07-20T03:50:22;11.43;;;10.07;;
3121;SDS011;1571;52.524;14.104;2023-07-20T03:52:50;11.90;;;10.70;;
3121;SDS011;1571;52.524;14.104;2023-07-20T03:55:19;10.83;;;9.77;;
3121;SDS011;1571;52.524;14.104;2023-07-20T03:57:47;11.10;;;10.03;;
3121;SDS011;1571;52.524;14.104;2023-07-20T04:00:18;13.40;;;10.87;;
3121;SDS011;1571;52.524;14.104;2023-07-20T04:02:46;12.13;;;10.90;;
3121;SDS011;1571;52.524;14.104;2023-07-20T04:05:16;12.43;;;11.33;;
3121;SDS011;1571;52.524;14.104;2023-07-20T04:07:44;13.07;;;11.87;;
3121;SDS011;1571;52.524;14.104;2023-07-20T04:10:12;12.57;;;11.37;;
3121;SDS011;1571;52.524;14.104;2023-07-20T04:12:41;13.07;;;11.73;;
3121;SDS011;1571;52.524;14.104;2023-07-20T04:15:10;15.50;;;13.90;;
3121;SDS011;1571;52.524;14.104;2023-07-20T04:17:40;12.73;;;11.53;;
3121;SDS011;1571;52.524;14.104;2023-07-20T04:20:08;14.37;;;12.97;;
3121;SDS011;1571;52.524;14.104;2023-07-20T04:22:38;16.00;;;14.50;;
3121;SDS011;1571;52.524;14.104;2023-07-20T04:25:10;15.10;;;13.70;;
3121;SDS011;1571;52.524;14.104;2023-07-20T04:27:39;16.20;;;14.70;;
3121;SDS011;1571;52.524;14.104;2023-07-20T04:30:08;17.67;;;15.73;;
3121;SDS011;1571;52.524;14.104;2023-07-20T04:32:37;17.47;;;15.80;;
3121;SDS011;1571;52.524;14.104;2023-07-20T04:35:16;18.13;;;15.53;;
3121;SDS011;1571;52.524;14.104;2023-07-20T04:37:49;14.97;;;13.57;;
3121;SDS011;1571;52.524;14.104;2023-07-20T04:40:19;18.70;;;16.20;;
3121;SDS011;1571;52.524;14.104;2023-07-20T04:42:47;20.43;;;15.80;;
3121;SDS011;1571;52.524;14.104;2023-07-20T04:45:17;18.50;;;16.60;;
3121;SDS011;1571;52.524;14.104;2023-07-20T04:47:46;17.83;;;16.03;;
3121;SDS011;1571;52.524;14.104;2023-07-20T04:50:14;18.17;;;15.77;;
3121;SDS011;1571;52.524;14.104;2023-07-20T04:52:43;18.23;;;16.50;;
3121;SDS011;1571;52.524;14.104;2023-07-20T04:55:17;17.80;;;15.90;;
3121;SDS011;1571;52.524;14.104;2023-07-20T04:57:45;17.30;;;15.33;;
3121;SDS011;1571;52.524;14.104;2023-07-20T05:00:15;20.03;;;16.23;;
3121;SDS011;1571;52.524;14.104;2023-07-20T05:02:44;14.70;;;13.30;;
3121;SDS011;1571;52.524;14.104;2023-07-20T05:05:15;16.33;;;14.73;;
3121;SDS011;1571;52.524;14.104;2023-07-20T05:07:43;15.97;;;14.43;;
3121;SDS011;1571;52.524;14.104;2023-07-20T05:10:12;15.47;;;13.87;;
3121;SDS011;1571;52.524;14.104;2023-07-20T05:12:42;16.20;;;14.60;;
3121;SDS011;1571;52.524;14.104;2023-07-20T05:15:11;17.80;;;13.90;;
3121;SDS011;1571;52.524;14.104;2023-07-20T05:17:41;16.67;;;14.83;;
3121;SDS011;1571;52.524;14.104;2023-07-20T05:20:10;19.07;;;14.63;;
3121;SDS011;1571;52.524;14.104;2023-07-20T05:22:40;14.80;;;13.30;;
3121;SDS011;1571;52.524;14.104;2023-07-20T05:25:08;15.63;;;14.00;;
3121;SDS011;1571;52.524;14.104;2023-07-20T05:27:37;20.33;;;14.97;;
3121;SDS011;1571;52.524;14.104;2023-07-20T05:30:08;16.43;;;13.90;;
3121;SDS011;1571;52.524;14.104;2023-07-20T05:32:36;20.43;;;14.03;;
3121;SDS011;1571;52.524;14.104;2023-07-20T05:35:05;15.07;;;13.47;;
3121;SDS011;1571;52.524;14.104;2023-07-20T05:37:35;14.60;;;12.73;;
3121;SDS011;1571;52.524;14.104;2023-07-20T05:40:04;16.00;;;12.80;;
3121;SDS011;1571;52.524;14.104;2023-07-20T05:42:34;14.10;;;12.67;;
3121;SDS011;1571;52.524;14.104;2023-07-20T05:45:03;13.37;;;12.00;;
3121;SDS011;1571;52.524;14.104;2023-07-20T05:47:33;14.17;;;11.90;;
3121;SDS011;1571;52.524;14.104;2023-07-20T05:50:01;12.23;;;11.00;;
3121;SDS011;1571;52.524;14.104;2023-07-20T05:52:30;14.10;;;12.70;;
3121;SDS011;1571;52.524;14.104;2023-07-20T05:54:59;14.50;;;11.10;;
3121;SDS011;1571;52.524;14.104;2023-07-20T05:57:27;13.23;;;11.90;;
3121;SDS011;1571;52.524;14.104;2023-07-20T05:59:55;13.10;;;11.80;;
3121;SDS011;1571;52.524;14.104;2023-07-20T06:02:23;13.40;;;12.30;;
3121;SDS011;1571;52.524;14.104;2023-07-20T06:04:53;11.30;;;10.40;;
3121;SDS011;1571;52.524;14.104;2023-07-20T06:07:21;11.07;;;9.90;;
3121;SDS011;1571;52.524;14.104;2023-07-20T06:09:49;12.00;;;10.80;;
3121;SDS011;1571;52.524;14.104;2023-07-20T06:12:18;11.70;;;10.60;;
3121;SDS011;1571;52.524;14.104;2023-07-20T06:14:46;12.37;;;9.90;;
3121;SDS011;1571;52.524;14.104;2023-07-20T06:17:14;14.10;;;10.80;;
3121;SDS011;1571;52.524;14.104;2023-07-20T06:19:42;13.27;;;11.10;;
3121;SDS011;1571;52.524;14.104;2023-07-20T06:22:12;9.87;;;8.97;;
3121;SDS011;1571;52.524;14.104;2023-07-20T06:24:40;9.50;;;8.80;;
3121;SDS011;1571;52.524;14.104;2023-07-20T06:27:08;9.87;;;8.87;;
3121;SDS011;1571;52.524;14.104;2023-07-20T06:29:37;8.90;;;7.57;;
3121;SDS011;1571;52.524;14.104;2023-07-20T06:32:05;5.20;;;4.70;;
3121;SDS011;1571;52.524;14.104;2023-07-20T06:34:34;5.50;;;5.00;;
3121;SDS011;1571;52.524;14.104;2023-07-20T06:37:05;8.00;;;7.30;;
3121;SDS011;1571;52.524;14.104;2023-07-20T06:39:34;9.50;;;7.10;;
3121;SDS011;1571;52.524;14.104;2023-07-20T06:42:06;8.70;;;7.23;;
3121;SDS011;1571;52.524;14.104;2023-07-20T06:44:35;7.70;;;7.10;;
3121;SDS011;1571;52.524;14.104;2023-07-20T06:47:03;7.23;;;6.57;;
3121;SDS011;1571;52.524;14.104;2023-07-20T06:49:32;8.03;;;7.33;;
3121;SDS011;1571;52.524;14.104;2023-07-20T06:52:00;7.07;;;6.53;;
3121;SDS011;1571;52.524;14.104;2023-07-20T06:54:28;5.60;;;5.27;;
3121;SDS011;1571;52.524;14.104;2023-07-20T06:57:04;6.33;;;5.83;;
3121;SDS011;1571;52.524;14.104;2023-07-20T06:59:36;6.13;;;5.60;;
3121;SDS011;1571;52.524;14.104;2023-07-20T07:02:08;5.33;;;4.93;;
3121;SDS011;1571;52.524;14.104;2023-07-20T07:04:39;6.27;;;5.30;;
3121;SDS011;1571;52.524;14.104;2023-07-20T07:07:07;6.03;;;5.53;;
3121;SDS011;1571;52.524;14.104;2023-07-20T07:09:36;4.47;;;4.17;;
3121;SDS011;1571;52.524;14.104;2023-07-20T07:12:06;6.00;;;4.50;;
3121;SDS011;1571;52.524;14.104;2023-07-20T07:14:35;4.37;;;4.07;;
3121;SDS011;1571;52.524;14.104;2023-07-20T07:17:03;4.20;;;3.90;;
3121;SDS011;1571;52.524;14.104;2023-07-20T07:19:33;4.97;;;4.63;;
3121;SDS011;1571;52.524;14.104;2023-07-20T07:22:02;4.37;;;4.03;;
3121;SDS011;1571;52.524;14.104;2023-07-20T07:24:31;4.00;;;3.70;;
3121;SDS011;1571;52.524;14.104;2023-07-20T07:27:01;4.00;;;3.80;;
3121;SDS011;1571;52.524;14.104;2023-07-20T07:29:31;4.20;;;3.90;;
3121;SDS011;1571;52.524;14.104;2023-07-20T07:32:00;3.30;;;3.10;;
3121;SDS011;1571;52.524;14.104;2023-07-20T07:34:28;2.40;;;2.30;;
3121;SDS011;1571;52.524;14.104;2023-07-20T07:36:56;2.80;;;2.60;;
3121;SDS011;1571;52.524;14.104;2023-07-20T07:39:25;4.53;;;2.83;;
3121;SDS011;1571;52.524;14.104;2023-07-20T07:42:01;3.00;;;2.90;;
3121;SDS011;1571;52.524;14.104;2023-07-20T07:44:29;3.77;;;3.57;;
3121;SDS011;1571;52.524;14.104;2023-07-20T07:46:59;3.20;;;2.87;;
3121;SDS011;1571;52.524;14.104;2023-07-20T07:49:27;3.17;;;2.73;;
3121;SDS011;1571;52.524;14.104;2023-07-20T07:51:56;4.30;;;2.43;;
3121;SDS011;1571;52.524;14.104;2023-07-20T07:54:24;2.53;;;2.33;;
3121;SDS011;1571;52.524;14.104;2023-07-20T07:56:52;3.17;;;2.07;;
3121;SDS011;1571;52.524;14.104;2023-07-20T07:59:20;2.13;;;2.03;;
3121;SDS011;1571;52.524;14.104;2023-07-20T08:01:49;5.10;;;2.40;;
3121;SDS011;1571;52.524;14.104;2023-07-20T08:04:18;2.30;;;2.13;;
3121;SDS011;1571;52.524;14.104;2023-07-20T08:06:47;2.53;;;2.40;;
3121;SDS011;1571;52.524;14.104;2023-07-20T08:09:15;1.90;;;1.80;;
3121;SDS011;1571;52.524;14.104;2023-07-20T08:11:43;5.70;;;2.40;;
3121;SDS011;1571;52.524;14.104;2023-07-20T08:14:11;1.83;;;1.73;;
3121;SDS011;1571;52.524;14.104;2023-07-20T08:16:39;2.73;;;1.90;;
3121;SDS011;1571;52.524;14.104;2023-07-20T08:19:08;2.47;;;2.37;;
3121;SDS011;1571;52.524;14.104;2023-07-20T08:21:38;2.93;;;1.77;;
3121;SDS011;1571;52.524;14.104;2023-07-20T08:24:06;1.60;;;1.50;;
3121;SDS011;1571;52.524;14.104;2023-07-20T08:26:35;2.37;;;1.63;;
3121;SDS011;1571;52.524;14.104;2023-07-20T08:29:03;2.17;;;1.97;;
3121;SDS011;1571;52.524;14.104;2023-07-20T08:31:31;1.30;;;1.20;;
3121;SDS011;1571;52.524;14.104;2023-07-20T08:34:00;1.40;;;1.30;;
3121;SDS011;1571;52.524;14.104;2023-07-20T08:36:40;2.90;;;0.90;;
3121;SDS011;1571;52.524;14.104;2023-07-20T08:39:08;1.23;;;1.13;;
3121;SDS011;1571;52.524;14.104;2023-07-20T08:41:36;1.00;;;1.00;;
3121;SDS011;1571;52.524;14.104;2023-07-20T08:44:05;0.93;;;0.93;;
3121;SDS011;1571;52.524;14.104;2023-07-20T08:46:34;1.10;;;1.10;;
3121;SDS011;1571;52.524;14.104;2023-07-20T08:49:03;2.17;;;0.80;;
3121;SDS011;1571;52.524;14.104;2023-07-20T08:51:31;2.20;;;0.90;;
3121;SDS011;1571;52.524;14.104;2023-07-20T08:54:02;1.10;;;1.00;;
3121;SDS011;1571;52.524;14.104;2023-07-20T08:56:30;1.57;;;0.70;;
3121;SDS011;1571;52.524;14.104;2023-07-20T08:59:01;0.70;;;0.67;;
3121;SDS011;1571;52.524;14.104;2023-07-20T09:01:30;0.63;;;0.63;;
3121;SDS011;1571;52.524;14.104;2023-07-20T09:03:59;0.80;;;0.73;;
3121;SDS011;1571;52.524;14.104;2023-07-20T09:06:28;1.53;;;0.73;;
3121;SDS011;1571;52.524;14.104;2023-07-20T09:08:57;3.17;;;0.80;;
3121;SDS011;1571;52.524;14.104;2023-07-20T09:11:29;0.70;;;0.70;;
3121;SDS011;1571;52.524;14.104;2023-07-20T09:14:04;1.37;;;0.80;;
3121;SDS011;1571;52.524;14.104;2023-07-20T09:16:37;0.80;;;0.60;;
3121;SDS011;1571;52.524;14.104;2023-07-20T09:19:15;0.93;;;0.70;;
3121;SDS011;1571;52.524;14.104;2023-07-20T09:21:44;0.87;;;0.67;;
3121;SDS011;1571;52.524;14.104;2023-07-20T09:24:14;1.57;;;0.60;;
3121;SDS011;1571;52.524;14.104;2023-07-20T09:26:45;0.60;;;0.60;;
3121;SDS011;1571;52.524;14.104;2023-07-20T09:29:17;2.10;;;0.50;;
3121;SDS011;1571;52.524;14.104;2023-07-20T09:31:58;0.70;;;0.50;;
3121;SDS011;1571;52.524;14.104;2023-07-20T09:34:28;1.90;;;0.60;;
3121;SDS011;1571;52.524;14.104;2023-07-20T09:36:59;0.50;;;0.50;;
3121;SDS011;1571;52.524;14.104;2023-07-20T09:39:29;2.23;;;0.60;;
3121;SDS011;1571;52.524;14.104;2023-07-20T09:42:01;0.50;;;0.50;;
3121;SDS011;1571;52.524;14.104;2023-07-20T09:44:34;2.87;;;0.63;;
3121;SDS011;1571;52.524;14.104;2023-07-20T09:47:05;0.87;;;0.67;;
3121;SDS011;1571;52.524;14.104;2023-07-20T09:49:37;0.73;;;0.67;;
3121;SDS011;1571;52.524;14.104;2023-07-20T09:52:10;3.33;;;0.60;;
3121;SDS011;1571;52.524;14.104;2023-07-20T09:54:39;0.70;;;0.70;;
3121;SDS011;1571;52.524;14.104;2023-07-20T09:57:09;0.90;;;0.70;;
3121;SDS011;1571;52.524;14.104;2023-07-20T09:59:39;0.70;;;0.70;;
3121;SDS011;1571;52.524;14.104;2023-07-20T10:02:09;2.60;;;0.77;;
3121;SDS011;1571;52.524;14.104;2023-07-20T10:04:48;1.07;;;0.53;;
3121;SDS011;1571;52.524;14.104;2023-07-20T10:07:21;0.50;;;0.50;;
3121;SDS011;1571;52.524;14.104;2023-07-20T10:09:51;0.70;;;0.60;;
3121;SDS011;1571;52.524;14.104;2023-07-20T10:12:22;1.27;;;0.53;;
3121;SDS011;1571;52.524;14.104;2023-07-20T10:14:52;1.53;;;0.67;;
3121;SDS011;1571;52.524;14.104;2023-07-20T10:17:42;1.23;;;0.60;;
3121;SDS011;1571;52.524;14.104;2023-07-20T10:20:17;0.70;;;0.60;;
3121;SDS011;1571;52.524;14.104;2023-07-20T10:22:49;3.03;;;0.60;;
3121;SDS011;1571;52.524;14.104;2023-07-20T10:25:21;0.50;;;0.50;;
3121;SDS011;1571;52.524;14.104;2023-07-20T10:27:51;0.50;;;0.50;;
3121;SDS011;1571;52.524;14.104;2023-07-20T10:30:20;0.70;;;0.40;;
3121;SDS011;1571;52.524;14.104;2023-07-20T10:32:48;0.47;;;0.47;;
3121;SDS011;1571;52.524;14.104;2023-07-20T10:35:18;0.57;;;0.53;;
3121;SDS011;1571;52.524;14.104;2023-07-20T10:37:50;0.67;;;0.50;;
3121;SDS011;1571;52.524;14.104;2023-07-20T10:40:23;0.53;;;0.47;;
3121;SDS011;1571;52.524;14.104;2023-07-20T10:42:57;0.63;;;0.50;;
3121;SDS011;1571;52.524;14.104;2023-07-20T10:45:37;0.43;;;0.43;;
3121;SDS011;1571;52.524;14.104;2023-07-20T10:48:14;1.43;;;0.50;;
3121;SDS011;1571;52.524;14.104;2023-07-20T10:50:43;0.50;;;0.50;;
3121;SDS011;1571;52.524;14.104;2023-07-20T10:53:15;1.10;;;0.50;;
3121;SDS011;1571;52.524;14.104;2023-07-20T10:55:44;0.40;;;0.40;;
3121;SDS011;1571;52.524;14.104;2023-07-20T10:58:14;2.60;;;0.50;;
3121;SDS011;1571;52.524;14.104;2023-07-20T11:00:59;0.73;;;0.50;;
3121;SDS011;1571;52.524;14.104;2023-07-20T11:03:30;0.40;;;0.40;;
3121;SDS011;1571;52.524;14.104;2023-07-20T11:06:29;0.53;;;0.53;;
3121;SDS011;1571;52.524;14.104;2023-07-20T11:09:09;0.40;;;0.40;;
3121;SDS011;1571;52.524;14.104;2023-07-20T11:11:41;0.50;;;0.50;;
3121;SDS011;1571;52.524;14.104;2023-07-20T11:14:20;0.60;;;0.60;;
3121;SDS011;1571;52.524;14.104;2023-07-20T11:16:50;0.50;;;0.50;;
3121;SDS011;1571;52.524;14.104;2023-07-20T11:19:20;0.93;;;0.60;;
3121;SDS011;1571;52.524;14.104;2023-07-20T11:21:53;2.47;;;0.43;;
3121;SDS011;1571;52.524;14.104;2023-07-20T11:24:29;0.40;;;0.40;;
3121;SDS011;1571;52.524;14.104;2023-07-20T11:26:59;1.00;;;0.50;;
3121;SDS011;1571;52.524;14.104;2023-07-20T11:29:29;0.40;;;0.40;;
3121;SDS011;1571;52.524;14.104;2023-07-20T11:32:00;0.50;;;0.50;;
3121;SDS011;1571;52.524;14.104;2023-07-20T11:34:32;1.23;;;0.50;;
3121;SDS011;1571;52.524;14.104;2023-07-20T11:37:01;0.53;;;0.50;;
3121;SDS011;1571;52.524;14.104;2023-07-20T11:39:33;3.00;;;0.60;;
3121;SDS011;1571;52.524;14.104;2023-07-20T11:42:03;0.60;;;0.60;;
3121;SDS011;1571;52.524;14.104;2023-07-20T11:44:34;1.97;;;0.50;;
3121;SDS011;1571;52.524;14.104;2023-07-20T11:47:03;1.23;;;0.50;;
3121;SDS011;1571;52.524;14.104;2023-07-20T11:49:34;1.10;;;0.50;;
3121;SDS011;1571;52.524;14.104;2023-07-20T11:52:04;1.77;;;0.77;;
3121;SDS011;1571;52.524;14.104;2023-07-20T11:54:34;1.03;;;0.73;;
3121;SDS011;1571;52.524;14.104;2023-07-20T11:57:03;3.60;;;0.60;;
3121;SDS011;1571;52.524;14.104;2023-07-20T11:59:33;1.00;;;0.83;;
3121;SDS011;1571;52.524;14.104;2023-07-20T12:02:02;0.60;;;0.50;;
3121;SDS011;1571;52.524;14.104;2023-07-20T12:04:31;0.50;;;0.50;;
3121;SDS011;1571;52.524;14.104;2023-07-20T12:07:00;1.47;;;0.70;;
3121;SDS011;1571;52.524;14.104;2023-07-20T12:09:28;0.67;;;0.60;;
3121;SDS011;1571;52.524;14.104;2023-07-20T12:12:16;1.57;;;0.60;;
3121;SDS011;1571;52.524;14.104;2023-07-20T12:14:47;0.70;;;0.50;;
3121;SDS011;1571;52.524;14.104;2023-07-20T12:17:16;1.10;;;0.67;;
3121;SDS011;1571;52.524;14.104;2023-07-20T12:19:44;1.73;;;0.50;;
3121;SDS011;1571;52.524;14.104;2023-07-20T12:22:13;0.50;;;0.50;;
3121;SDS011;1571;52.524;14.104;2023-07-20T12:24:42;1.90;;;0.50;;
3121;SDS011;1571;52.524;14.104;2023-07-20T12:27:13;1.30;;;0.50;;
3121;SDS011;1571;52.524;14.104;2023-07-20T12:29:41;0.63;;;0.57;;
3121;SDS011;1571;52.524;14.104;2023-07-20T12:32:11;1.57;;;0.60;;
3121;SDS011;1571;52.524;14.104;2023-07-20T12:34:39;1.80;;;0.50;;
3121;SDS011;1571;52.524;14.104;2023-07-20T12:37:07;1.87;;;0.60;;
3121;SDS011;1571;52.524;14.104;2023-07-20T12:39:38;1.47;;;0.60;;
3121;SDS011;1571;52.524;14.104;2023-07-20T12:42:08;2.20;;;0.60;;
3121;SDS011;1571;52.524;14.104;2023-07-20T12:44:36;3.07;;;0.50;;
3121;SDS011;1571;52.524;14.104;2023-07-20T12:47:04;0.50;;;0.50;;
3121;SDS011;1571;52.524;14.104;2023-07-20T12:49:34;0.70;;;0.50;;
3121;SDS011;1571;52.524;14.104;2023-07-20T12:52:03;1.23;;;0.60;;
3121;SDS011;1571;52.524;14.104;2023-07-20T12:54:31;1.33;;;0.50;;
3121;SDS011;1571;52.524;14.104;2023-07-20T12:56:59;0.53;;;0.50;;
3121;SDS011;1571;52.524;14.104;2023-07-20T12:59:33;3.33;;;0.70;;
3121;SDS011;1571;52.524;14.104;2023-07-20T13:02:01;0.60;;;0.53;;
3121;SDS011;1571;52.524;14.104;2023-07-20T13:04:29;0.90;;;0.50;;
3121;SDS011;1571;52.524;14.104;2023-07-20T13:06:59;1.33;;;0.40;;
3121;SDS011;1571;52.524;14.104;2023-07-20T13:09:47;1.77;;;0.50;;
3121;SDS011;1571;52.524;14.104;2023-07-20T13:12:16;2.97;;;0.50;;
3121;SDS011;1571;52.524;14.104;2023-07-20T13:14:44;0.73;;;0.40;;
3121;SDS011;1571;52.524;14.104;2023-07-20T13:17:12;2.90;;;0.80;;
3121;SDS011;1571;52.524;14.104;2023-07-20T13:19:40;0.80;;;0.50;;
3121;SDS011;1571;52.524;14.104;2023-07-20T13:22:10;0.40;;;0.40;;
3121;SDS011;1571;52.524;14.104;2023-07-20T13:24:38;0.70;;;0.53;;
3121;SDS011;1571;52.524;14.104;2023-07-20T13:27:07;1.27;;;0.50;;
3121;SDS011;1571;52.524;14.104;2023-07-20T13:29:37;0.43;;;0.43;;
3121;SDS011;1571;52.524;14.104;2023-07-20T13:32:06;0.53;;;0.53;;
3121;SDS011;1571;52.524;14.104;2023-07-20T13:34:35;0.40;;;0.40;;
3121;SDS011;1571;52.524;14.104;2023-07-20T13:37:06;1.37;;;0.50;;
3121;SDS011;1571;52.524;14.104;2023-07-20T13:39:38;2.20;;;0.50;;
3121;SDS011;1571;52.524;14.104;2023-07-20T13:42:07;0.83;;;0.40;;
3121;SDS011;1571;52.524;14.104;2023-07-20T13:44:36;1.40;;;0.43;;
3121;SDS011;1571;52.524;14.104;2023-07-20T13:47:05;1.23;;;0.40;;
3121;SDS011;1571;52.524;14.104;2023-07-20T13:49:36;4.83;;;0.60;;
3121;SDS011;1571;52.524;14.104;2023-07-20T13:52:14;0.50;;;0.40;;
3121;SDS011;1571;52.524;14.104;2023-07-20T13:54:46;0.70;;;0.40;;
3121;SDS011;1571;52.524;14.104;2023-07-20T13:57:19;1.70;;;0.43;;
3121;SDS011;1571;52.524;14.104;2023-07-20T13:59:48;0.40;;;0.40;;
3121;SDS011;1571;52.524;14.104;2023-07-20T14:02:17;0.40;;;0.40;;
3121;SDS011;1571;52.524;14.104;2023-07-20T14:04:48;0.40;;;0.40;;
3121;SDS011;1571;52.524;14.104;2023-07-20T14:07:37;1.00;;;0.60;;
3121;SDS011;1571;52.524;14.104;2023-07-20T14:10:08;4.40;;;0.57;;
3121;SDS011;1571;52.524;14.104;2023-07-20T14:12:39;2.70;;;0.60;;
3121;SDS011;1571;52.524;14.104;2023-07-20T14:15:07;0.50;;;0.50;;
3121;SDS011;1571;52.524;14.104;2023-07-20T14:17:38;0.80;;;0.50;;
3121;SDS011;1571;52.524;14.104;2023-07-20T14:20:06;1.17;;;0.60;;
3121;SDS011;1571;52.524;14.104;2023-07-20T14:22:38;1.13;;;0.70;;
3121;SDS011;1571;52.524;14.104;2023-07-20T14:25:10;1.03;;;0.50;;
3121;SDS011;1571;52.524;14.104;2023-07-20T14:27:38;0.97;;;0.50;;
3121;SDS011;1571;52.524;14.104;2023-07-20T14:30:07;0.50;;;0.50;;
3121;SDS011;1571;52.524;14.104;2023-07-20T14:32:35;1.23;;;0.40;;
3121;SDS011;1571;52.524;14.104;2023-07-20T14:35:06;1.43;;;0.60;;
3121;SDS011;1571;52.524;14.104;2023-07-20T14:37:36;2.30;;;0.50;;
3121;SDS011;1571;52.524;14.104;2023-07-20T14:40:05;2.23;;;0.57;;
3121;SDS011;1571;52.524;14.104;2023-07-20T14:42:36;0.50;;;0.50;;
3121;SDS011;1571;52.524;14.104;2023-07-20T14:45:05;1.73;;;0.60;;
3121;SDS011;1571;52.524;14.104;2023-07-20T14:47:35;2.90;;;0.40;;
3121;SDS011;1571;52.524;14.104;2023-07-20T14:50:05;0.60;;;0.50;;
3121;SDS011;1571;52.524;14.104;2023-07-20T14:52:33;2.07;;;0.70;;
3121;SDS011;1571;52.524;14.104;2023-07-20T14:55:02;0.53;;;0.50;;
3121;SDS011;1571;52.524;14.104;2023-07-20T14:57:30;1.23;;;0.90;;
3121;SDS011;1571;52.524;14.104;2023-07-20T14:59:59;0.80;;;0.40;;
3121;SDS011;1571;52.524;14.104;2023-07-20T15:02:28;2.83;;;0.93;;
3121;SDS011;1571;52.524;14.104;2023-07-20T15:04:56;1.07;;;0.57;;
3121;SDS011;1571;52.524;14.104;2023-07-20T15:07:25;1.23;;;0.50;;
3121;SDS011;1571;52.524;14.104;2023-07-20T15:09:53;0.50;;;0.50;;
3121;SDS011;1571;52.524;14.104;2023-07-20T15:12:21;1.23;;;0.53;;